Time;durP1;ratioP1;P1;durP2;ratioP2;P2;SDS_P1;SDS_P2;PMS_P1;PMS_P2;Temp;Humidity;BMP_temperature;BMP_pressure;BME280_temperature;BME280_humidity;BME280_pressure;Samples;Min_cycle;Max_cycle;Signal;HPM_P1;HPM_P2
2022/04/16 00:00:58;;;;;;;14.18;10.57;;;11.70;65.20;;;;;;5057741;28;20104;-63
2022/04/16 00:03:24;;;;;;;16.02;10.70;;;11.70;65.20;;;;;;5057282;28;20033;-62
2022/04/16 00:05:52;;;;;;;15.85;10.25;;;11.70;65.30;;;;;;5057588;28;20029;-63
2022/04/16 00:08:23;;;;;;;15.15;10.30;;;11.70;65.40;;;;;;5059279;28;20358;-62
2022/04/16 00:10:48;;;;;;;16.30;11.13;;;11.70;65.40;;;;;;5057824;28;20342;-63
2022/04/16 00:13:17;;;;;;;14.93;10.43;;;11.60;65.40;;;;;;5060201;28;20408;-63
2022/04/16 00:15:43;;;;;;;13.82;10.25;;;11.60;65.50;;;;;;5060161;28;20105;-62
2022/04/16 00:18:10;;;;;;;14.38;10.77;;;11.60;65.60;;;;;;5074340;28;20037;-62
2022/04/16 00:20:36;;;;;;;16.83;11.13;;;11.60;65.70;;;;;;5077310;28;20045;-63
2022/04/16 00:23:01;;;;;;;14.82;10.95;;;11.50;65.70;;;;;;5070337;28;20029;-63
2022/04/16 00:25:30;;;;;;;15.05;10.30;;;11.50;65.80;;;;;;5058048;28;20469;-63
2022/04/16 00:27:56;;;;;;;14.95;10.60;;;11.50;65.90;;;;;;5073019;28;20027;-62
2022/04/16 00:30:21;;;;;;;15.70;10.93;;;11.50;66.00;;;;;;5076712;28;20028;-63
2022/04/16 00:32:47;;;;;;;15.57;9.57;;;11.40;66.00;;;;;;5068023;28;20116;-62
2022/04/16 00:35:15;;;;;;;15.20;10.23;;;11.40;66.10;;;;;;5057231;28;20032;-63
2022/04/16 00:37:41;;;;;;;15.20;11.07;;;11.40;66.10;;;;;;5074596;28;20514;-63
2022/04/16 00:40:07;;;;;;;14.00;9.90;;;11.40;66.30;;;;;;5076303;28;20033;-63
2022/04/16 00:42:40;;;;;;;16.27;11.05;;;11.30;66.40;;;;;;5059209;28;20037;-63
2022/04/16 00:45:07;;;;;;;15.05;10.90;;;11.30;66.50;;;;;;5056461;28;20120;-64
2022/04/16 00:47:32;;;;;;;15.32;10.18;;;11.30;66.60;;;;;;5073442;28;20032;-64
2022/04/16 00:49:59;;;;;;;15.43;10.52;;;11.20;66.60;;;;;;5076729;28;20134;-63
2022/04/16 00:52:25;;;;;;;15.80;11.18;;;11.20;66.80;;;;;;5061175;28;20446;-63
2022/04/16 00:54:54;;;;;;;15.52;11.13;;;11.20;66.80;;;;;;5056626;28;20040;-63
2022/04/16 00:57:21;;;;;;;16.30;11.10;;;11.20;66.90;;;;;;5057513;28;20043;-63
2022/04/16 00:59:47;;;;;;;16.20;11.75;;;11.20;67.00;;;;;;5056543;28;20036;-63
2022/04/16 01:02:12;;;;;;;16.63;11.05;;;11.10;67.00;;;;;;5056624;28;20037;-63
2022/04/16 01:04:38;;;;;;;17.63;11.68;;;11.10;67.10;;;;;;5056457;28;20378;-63
2022/04/16 01:07:06;;;;;;;17.30;10.95;;;11.10;67.20;;;;;;5058546;28;20044;-63
2022/04/16 01:09:33;;;;;;;17.75;12.18;;;11.10;67.30;;;;;;5056394;28;20021;-63
2022/04/16 01:11:59;;;;;;;16.27;11.68;;;11.10;67.30;;;;;;5056587;28;20134;-63
2022/04/16 01:14:25;;;;;;;15.38;11.38;;;11.00;67.20;;;;;;5056232;28;20069;-62
2022/04/16 01:16:53;;;;;;;17.33;12.15;;;11.00;67.30;;;;;;5063246;28;20119;-62
2022/04/16 01:19:21;;;;;;;16.00;12.02;;;11.00;67.40;;;;;;5076180;28;20035;-62
2022/04/16 01:21:47;;;;;;;15.73;12.38;;;11.00;67.40;;;;;;5073653;28;20507;-62
2022/04/16 01:24:14;;;;;;;15.65;11.70;;;11.00;67.40;;;;;;5069678;28;20041;-62
2022/04/16 01:26:41;;;;;;;17.92;13.18;;;11.00;67.50;;;;;;5055820;28;20414;-62
2022/04/16 01:29:08;;;;;;;19.30;14.20;;;10.90;67.50;;;;;;5056596;28;20112;-62
2022/04/16 01:31:33;;;;;;;17.08;12.82;;;10.90;67.60;;;;;;5059012;28;20170;-63
2022/04/16 01:34:00;;;;;;;20.83;15.52;;;10.90;67.60;;;;;;5075938;28;20311;-62
2022/04/16 01:36:29;;;;;;;20.30;14.45;;;10.90;67.80;;;;;;5061258;28;20055;-62
2022/04/16 01:38:56;;;;;;;18.90;14.27;;;10.80;67.80;;;;;;5056307;28;20122;-63
2022/04/16 01:41:26;;;;;;;18.48;13.20;;;10.80;68.00;;;;;;5055803;28;20032;-62
2022/04/16 01:43:51;;;;;;;18.45;13.57;;;10.80;68.10;;;;;;5055820;28;20151;-62
2022/04/16 01:46:17;;;;;;;17.35;12.55;;;10.80;68.10;;;;;;5061568;28;20020;-62
2022/04/16 01:48:43;;;;;;;18.38;13.00;;;10.70;68.00;;;;;;5056251;28;20025;-63
2022/04/16 01:51:09;;;;;;;19.15;14.02;;;10.70;68.10;;;;;;5054920;28;20029;-62
2022/04/16 01:53:35;;;;;;;18.65;13.48;;;10.70;68.10;;;;;;5072570;28;20086;-62
2022/04/16 01:56:00;;;;;;;19.25;13.55;;;10.70;68.20;;;;;;5059675;28;20377;-62
2022/04/16 01:58:26;;;;;;;18.23;13.68;;;10.70;68.20;;;;;;5070889;28;20031;-63
2022/04/16 02:00:52;;;;;;;18.70;13.68;;;10.70;68.10;;;;;;5074815;28;20090;-62
2022/04/16 02:03:20;;;;;;;17.63;13.07;;;10.70;68.20;;;;;;5062005;28;20063;-62
2022/04/16 02:05:46;;;;;;;20.85;14.98;;;10.70;68.20;;;;;;5065986;28;20387;-62
2022/04/16 02:08:12;;;;;;;18.55;13.82;;;10.60;68.20;;;;;;5067695;28;20165;-62
2022/04/16 02:10:38;;;;;;;18.92;13.85;;;10.60;68.20;;;;;;5075377;28;20077;-63
2022/04/16 02:13:03;;;;;;;20.77;14.13;;;10.60;68.30;;;;;;5056679;28;20112;-63
2022/04/16 02:15:29;;;;;;;18.58;13.82;;;10.60;68.40;;;;;;5055187;28;20032;-63
2022/04/16 02:17:56;;;;;;;20.73;14.45;;;10.60;68.40;;;;;;5064203;28;20032;-63
2022/04/16 02:20:23;;;;;;;21.95;13.90;;;10.60;68.40;;;;;;5055096;28;20071;-63
2022/04/16 02:22:49;;;;;;;17.85;13.57;;;10.60;68.50;;;;;;5056080;28;20068;-63
2022/04/16 02:25:17;;;;;;;23.00;14.88;;;10.60;68.60;;;;;;5063087;28;20039;-63
2022/04/16 02:27:43;;;;;;;19.70;14.55;;;10.50;68.60;;;;;;5063681;28;20020;-63
2022/04/16 02:30:12;;;;;;;19.38;13.70;;;10.50;68.60;;;;;;5073173;28;20024;-63
2022/04/16 02:32:43;;;;;;;21.58;14.02;;;10.50;68.70;;;;;;5059101;28;20393;-62
2022/04/16 02:35:10;;;;;;;22.58;14.60;;;10.50;68.80;;;;;;5066712;28;20051;-62
2022/04/16 02:37:36;;;;;;;22.75;14.57;;;10.40;68.80;;;;;;5065492;28;20346;-63
2022/04/16 02:40:03;;;;;;;19.58;13.50;;;10.40;68.90;;;;;;5055021;28;20025;-62
2022/04/16 02:42:29;;;;;;;19.65;14.10;;;10.40;68.90;;;;;;5055901;28;20042;-62
2022/04/16 02:47:38;;;;;;;23.02;15.35;;;10.40;69.00;;;;;;5062219;28;20035;-62
2022/04/16 02:50:04;;;;;;;19.75;14.15;;;10.40;69.00;;;;;;5054698;28;20108;-63
2022/04/16 02:52:34;;;;;;;20.65;14.68;;;10.40;69.10;;;;;;5054604;28;20025;-63
2022/04/16 02:55:01;;;;;;;19.27;14.45;;;10.40;69.20;;;;;;5060366;28;20032;-63
2022/04/16 02:57:26;;;;;;;19.40;14.07;;;10.40;69.20;;;;;;5067595;28;20044;-62
2022/04/16 02:59:52;;;;;;;20.27;15.23;;;10.30;69.20;;;;;;5052083;28;20037;-62
2022/04/16 03:02:18;;;;;;;19.60;13.45;;;10.30;69.20;;;;;;5054441;28;20115;-62
2022/04/16 03:04:43;;;;;;;19.42;14.57;;;10.30;69.30;;;;;;5069402;28;20033;-63
2022/04/16 03:07:09;;;;;;;19.13;13.50;;;10.30;69.30;;;;;;5055094;28;20032;-62
2022/04/16 03:09:35;;;;;;;22.02;15.93;;;10.30;69.40;;;;;;5071177;28;20036;-62
2022/04/16 03:12:01;;;;;;;20.60;15.02;;;10.30;69.50;;;;;;5057833;28;20119;-62
2022/04/16 03:19:56;;;;;;;19.58;14.65;;;10.20;69.60;;;;;;5061900;28;20048;-62
2022/04/16 03:22:22;;;;;;;20.08;14.52;;;10.20;69.70;;;;;;5053903;28;20037;-62
2022/04/16 03:24:47;;;;;;;20.05;14.15;;;10.20;69.80;;;;;;5056886;28;20040;-62
2022/04/16 03:27:13;;;;;;;17.65;13.23;;;10.20;69.90;;;;;;5069707;28;20350;-62
2022/04/16 03:29:39;;;;;;;18.05;13.32;;;10.20;69.90;;;;;;5038423;28;20461;-62
2022/04/16 03:32:05;;;;;;;20.60;14.05;;;10.10;69.90;;;;;;5053356;28;20052;-62
2022/04/16 03:34:32;;;;;;;19.13;14.40;;;10.20;69.90;;;;;;5059392;28;20033;-63
2022/04/16 03:36:58;;;;;;;19.95;14.13;;;10.20;70.00;;;;;;5070372;28;20032;-63
2022/04/16 03:39:24;;;;;;;19.25;14.07;;;10.20;70.00;;;;;;5069994;28;20110;-63
2022/04/16 03:41:50;;;;;;;22.33;14.55;;;10.20;70.00;;;;;;5051214;28;20052;-63
2022/04/16 03:44:15;;;;;;;22.83;15.68;;;10.20;70.10;;;;;;5057185;28;20035;-62
2022/04/16 03:46:41;;;;;;;23.42;15.50;;;10.10;70.10;;;;;;5050869;28;20023;-62
2022/04/16 03:49:06;;;;;;;23.20;15.35;;;10.10;70.20;;;;;;5054190;28;20100;-62
2022/04/16 03:51:32;;;;;;;22.15;15.00;;;10.10;70.20;;;;;;5055642;28;20025;-62
2022/04/16 03:59:59;;;;;;;21.70;13.63;;;10.10;70.30;;;;;;5053915;28;20553;-63
2022/04/16 04:02:12;;;;;;;24.02;15.20;;;10.00;70.40;;;;;;5041604;28;20044;-63
2022/04/16 04:04:38;;;;;;;20.20;14.07;;;10.00;70.50;;;;;;5053063;28;20365;-62
2022/04/16 04:07:04;;;;;;;19.67;14.57;;;10.00;70.60;;;;;;5052863;28;20033;-63
2022/04/16 04:09:31;;;;;;;20.80;14.75;;;9.90;70.60;;;;;;5052870;28;20142;-62
2022/04/16 04:11:57;;;;;;;22.45;15.18;;;9.90;70.70;;;;;;5053437;28;20039;-63
2022/04/16 04:14:22;;;;;;;20.77;14.90;;;9.90;70.70;;;;;;5054066;28;20033;-63
2022/04/16 04:16:48;;;;;;;21.77;15.93;;;10.00;70.90;;;;;;5053328;28;20397;-63
2022/04/16 04:19:13;;;;;;;20.60;14.68;;;9.90;70.80;;;;;;5056461;28;20445;-62
2022/04/16 04:21:39;;;;;;;20.90;15.73;;;9.90;70.90;;;;;;5053301;28;20041;-63
2022/04/16 04:24:05;;;;;;;20.73;14.30;;;9.90;71.00;;;;;;5053827;28;20024;-62
2022/04/16 04:26:30;;;;;;;20.23;14.45;;;9.90;71.00;;;;;;5054705;28;20438;-62
2022/04/16 04:28:56;;;;;;;21.85;15.05;;;9.90;71.10;;;;;;5056874;28;20063;-63
2022/04/16 04:31:21;;;;;;;23.25;16.05;;;9.90;71.10;;;;;;5053621;28;20455;-63
2022/04/16 04:33:47;;;;;;;21.20;15.48;;;9.90;71.10;;;;;;5055234;28;20037;-62
2022/04/16 04:36:12;;;;;;;20.80;14.05;;;9.80;71.10;;;;;;5056279;28;20029;-62
2022/04/16 04:38:39;;;;;;;22.92;16.33;;;9.90;71.20;;;;;;5056605;28;20049;-63
2022/04/16 04:41:07;;;;;;;21.00;15.20;;;9.80;71.80;;;;;;5044863;28;20116;-63
2022/04/16 04:43:33;;;;;;;22.17;15.50;;;9.80;71.20;;;;;;5053565;28;20053;-63
2022/04/16 04:45:58;;;;;;;21.92;15.98;;;9.80;71.30;;;;;;5055824;28;20056;-63
2022/04/16 04:48:24;;;;;;;21.92;15.68;;;9.80;71.40;;;;;;5056862;28;20075;-63
2022/04/16 04:50:49;;;;;;;25.08;17.70;;;9.80;71.40;;;;;;5055482;28;20087;-63
2022/04/16 04:53:15;;;;;;;22.10;16.35;;;9.80;71.50;;;;;;5055516;28;20036;-62
2022/04/16 04:55:40;;;;;;;24.92;17.08;;;9.80;71.50;;;;;;5049960;28;20370;-63
2022/04/16 04:58:06;;;;;;;25.02;16.48;;;9.80;71.50;;;;;;5045537;28;20033;-62
2022/04/16 05:00:32;;;;;;;21.27;15.38;;;9.80;71.60;;;;;;5048567;28;20028;-63
2022/04/16 05:02:57;;;;;;;22.75;16.33;;;9.80;71.70;;;;;;5047423;28;20438;-63
2022/04/16 05:05:23;;;;;;;22.70;15.95;;;9.80;71.80;;;;;;5040094;28;20048;-63
2022/04/16 05:07:48;;;;;;;21.35;15.73;;;9.80;71.80;;;;;;5055093;28;20450;-63
2022/04/16 05:10:14;;;;;;;22.17;15.85;;;9.80;71.80;;;;;;5054289;28;20040;-63
2022/04/16 05:12:39;;;;;;;20.95;15.48;;;9.90;71.90;;;;;;5065441;28;20021;-63
2022/04/16 05:15:06;;;;;;;21.50;16.05;;;9.90;72.00;;;;;;5061181;28;20036;-64
2022/04/16 05:17:31;;;;;;;22.35;16.10;;;9.90;72.00;;;;;;5071600;28;20103;-64
2022/04/16 05:19:57;;;;;;;25.20;16.63;;;9.90;72.10;;;;;;5048291;28;20105;-62
2022/04/16 05:22:23;;;;;;;22.45;15.25;;;9.90;72.10;;;;;;5055515;28;20059;-63
2022/04/16 05:24:48;;;;;;;24.92;15.43;;;10.00;72.10;;;;;;5055804;28;20065;-62
2022/04/16 05:27:15;;;;;;;23.88;17.00;;;10.00;72.10;;;;;;5061067;28;20040;-63
2022/04/16 05:29:56;;;;;;;23.15;17.10;;;10.00;72.00;;;;;;5059806;28;20330;-63
2022/04/16 05:32:24;;;;;;;20.50;14.57;;;10.10;72.10;;;;;;5059139;28;20383;-63
2022/04/16 05:34:53;;;;;;;21.90;16.20;;;10.10;72.00;;;;;;5057351;28;20074;-63
2022/04/16 05:37:18;;;;;;;21.65;16.98;;;10.10;72.00;;;;;;5058832;28;20053;-63
2022/04/16 05:39:44;;;;;;;22.73;17.55;;;10.20;72.00;;;;;;5055397;28;20462;-63
2022/04/16 05:42:09;;;;;;;24.85;17.33;;;10.20;72.00;;;;;;5055947;28;20427;-63
2022/04/16 05:44:35;;;;;;;23.70;17.15;;;10.40;71.90;;;;;;5055938;28;20037;-63
2022/04/16 05:47:00;;;;;;;22.33;16.92;;;10.60;71.50;;;;;;5059622;28;20196;-64
2022/04/16 05:49:26;;;;;;;24.95;16.83;;;10.80;71.10;;;;;;5065010;28;20079;-63
2022/04/16 05:51:51;;;;;;;25.00;17.17;;;11.00;70.60;;;;;;5068713;28;20066;-63
2022/04/16 05:54:17;;;;;;;21.85;16.10;;;11.30;70.10;;;;;;5062626;28;20108;-63
2022/04/16 05:56:43;;;;;;;25.75;17.58;;;11.30;69.90;;;;;;5055993;28;20036;-63
2022/04/16 05:59:08;;;;;;;24.50;17.70;;;11.30;70.00;;;;;;5067751;28;20045;-63
2022/04/16 06:01:34;;;;;;;22.65;16.45;;;11.40;70.10;;;;;;5075598;28;20036;-63
2022/04/16 06:03:59;;;;;;;23.73;16.77;;;11.60;69.80;;;;;;5064149;28;20056;-64
2022/04/16 06:06:25;;;;;;;22.55;17.08;;;11.80;69.30;;;;;;5063478;28;20024;-64
2022/04/16 06:08:51;;;;;;;23.95;16.38;;;11.90;69.10;;;;;;5059984;28;20029;-65
2022/04/16 06:11:19;;;;;;;22.85;18.00;;;12.10;68.70;;;;;;5055583;28;20431;-66
2022/04/16 06:13:45;;;;;;;23.67;17.63;;;12.40;68.30;;;;;;5057326;28;20029;-65
2022/04/16 06:16:11;;;;;;;26.13;17.55;;;12.70;67.60;;;;;;5056115;28;20025;-66
2022/04/16 06:18:36;;;;;;;25.60;16.90;;;13.10;67.10;;;;;;5054765;28;20067;-66
2022/04/16 06:21:02;;;;;;;22.40;17.00;;;13.40;66.30;;;;;;5055068;28;20446;-66
2022/04/16 06:23:31;;;;;;;24.08;17.15;;;13.60;65.60;;;;;;5066695;28;20024;-65
2022/04/16 06:25:58;;;;;;;21.15;16.38;;;13.90;65.10;;;;;;5054415;28;20112;-66
2022/04/16 06:28:23;;;;;;;22.10;16.30;;;14.20;64.50;;;;;;5055348;28;20029;-66
2022/04/16 06:30:49;;;;;;;24.30;15.32;;;14.40;64.20;;;;;;5055979;28;20024;-66
2022/04/16 06:33:14;;;;;;;20.48;16.38;;;14.40;64.10;;;;;;5072637;28;20048;-64
2022/04/16 06:35:40;;;;;;;17.73;14.13;;;14.40;64.00;;;;;;5056229;28;20028;-64
2022/04/16 06:38:06;;;;;;;19.42;14.98;;;14.30;64.30;;;;;;5038543;28;20423;-65
2022/04/16 06:40:31;;;;;;;20.15;15.00;;;14.20;64.30;;;;;;5053877;28;20052;-65
2022/04/16 06:42:57;;;;;;;19.77;14.52;;;14.20;64.30;;;;;;5054457;28;20033;-65
2022/04/16 06:45:22;;;;;;;20.60;14.85;;;14.10;64.30;;;;;;5054136;28;20110;-65
2022/04/16 06:47:48;;;;;;;19.73;14.52;;;14.10;64.30;;;;;;5054200;28;20025;-65
2022/04/16 06:50:14;;;;;;;21.80;15.60;;;14.20;64.10;;;;;;5054517;28;20112;-65
2022/04/16 06:52:39;;;;;;;19.45;14.57;;;14.30;63.90;;;;;;5071147;28;20028;-65
2022/04/16 06:55:06;;;;;;;19.15;14.10;;;14.30;63.60;;;;;;5054395;28;20450;-65
2022/04/16 06:57:32;;;;;;;17.35;13.35;;;14.40;63.40;;;;;;5066275;28;20036;-65
2022/04/16 06:59:58;;;;;;;18.55;13.73;;;14.40;63.20;;;;;;5063837;28;20033;-64
2022/04/16 07:02:23;;;;;;;19.50;14.55;;;14.40;63.00;;;;;;5057125;28;20044;-63
2022/04/16 07:04:49;;;;;;;18.63;13.02;;;14.40;63.00;;;;;;5062699;28;20074;-64
2022/04/16 07:07:14;;;;;;;19.63;14.52;;;14.50;62.80;;;;;;5065124;28;20425;-64
2022/04/16 07:09:40;;;;;;;20.27;14.88;;;14.60;62.50;;;;;;5057546;28;20045;-64
2022/04/16 07:12:10;;;;;;;19.88;14.57;;;14.70;62.30;;;;;;5053759;28;20418;-64
2022/04/16 07:14:37;;;;;;;19.48;13.00;;;14.80;61.80;;;;;;5052893;28;20032;-64
2022/04/16 07:17:03;;;;;;;18.35;13.93;;;15.00;61.60;;;;;;5054397;28;20087;-63
2022/04/16 07:19:29;;;;;;;17.73;13.65;;;15.00;61.20;;;;;;5054909;28;20041;-63
2022/04/16 07:21:55;;;;;;;18.25;13.68;;;15.10;61.10;;;;;;5054026;28;20056;-64
2022/04/16 07:24:25;;;;;;;19.33;13.65;;;15.10;60.70;;;;;;5054750;28;20025;-64
2022/04/16 07:26:54;;;;;;;17.85;13.55;;;15.20;60.70;;;;;;5069705;28;20090;-64
2022/04/16 07:29:22;;;;;;;18.48;13.57;;;15.30;60.40;;;;;;5055574;28;20449;-64
2022/04/16 07:31:47;;;;;;;20.33;14.55;;;15.40;60.20;;;;;;5061749;28;20032;-64
2022/04/16 07:34:14;;;;;;;17.67;13.40;;;15.50;60.00;;;;;;5075469;28;20480;-63
2022/04/16 07:36:40;;;;;;;18.13;12.93;;;15.70;59.60;;;;;;5060777;28;20032;-64
2022/04/16 07:39:06;;;;;;;19.08;14.13;;;15.90;59.20;;;;;;5070845;28;20051;-64
2022/04/16 07:41:32;;;;;;;16.15;12.20;;;16.00;59.10;;;;;;5073536;28;20029;-64
2022/04/16 07:44:02;;;;;;;17.65;12.88;;;16.20;58.80;;;;;;5074339;28;20031;-63
2022/04/16 07:46:32;;;;;;;18.77;13.23;;;16.30;58.50;;;;;;5056726;28;20045;-64
2022/04/16 07:48:58;;;;;;;16.95;13.13;;;16.40;58.30;;;;;;5054261;28;20029;-64
2022/04/16 07:51:24;;;;;;;18.88;13.32;;;16.60;57.90;;;;;;5057516;28;20476;-65
2022/04/16 07:53:50;;;;;;;17.25;12.90;;;16.60;57.60;;;;;;5056922;28;20414;-65
2022/04/16 07:56:16;;;;;;;18.40;13.57;;;16.50;57.60;;;;;;5058991;28;20033;-64
2022/04/16 07:58:41;;;;;;;19.27;12.57;;;16.50;57.60;;;;;;5058431;28;20163;-65
2022/04/16 08:01:07;;;;;;;16.98;12.75;;;16.70;57.40;;;;;;5057948;28;20041;-66
2022/04/16 08:03:33;;;;;;;16.48;12.38;;;16.90;57.00;;;;;;5058505;28;20475;-65
2022/04/16 08:05:58;;;;;;;16.33;11.88;;;17.10;56.60;;;;;;5057926;28;20025;-65
2022/04/16 08:08:24;;;;;;;14.82;11.23;;;17.20;56.30;;;;;;5060514;28;20060;-65
2022/04/16 08:10:51;;;;;;;16.27;12.05;;;17.30;56.10;;;;;;5057439;28;20111;-65
2022/04/16 08:13:18;;;;;;;15.60;10.90;;;17.50;56.00;;;;;;5054767;28;20037;-65
2022/04/16 08:15:45;;;;;;;15.65;11.55;;;17.80;55.50;;;;;;5070752;28;20032;-64
2022/04/16 08:18:11;;;;;;;16.10;11.43;;;17.90;55.10;;;;;;5062911;28;20104;-65
2022/04/16 08:20:37;;;;;;;15.70;11.90;;;18.00;54.70;;;;;;5056132;28;20116;-65
2022/04/16 08:23:06;;;;;;;14.63;10.82;;;18.00;54.50;;;;;;5056999;28;20052;-65
2022/04/16 08:28:01;;;;;;;12.77;9.65;;;18.20;54.00;;;;;;5053843;28;20066;-65
2022/04/16 08:30:27;;;;;;;14.13;10.10;;;18.30;53.70;;;;;;5054225;28;20071;-65
2022/04/16 08:32:53;;;;;;;17.73;10.45;;;18.40;53.30;;;;;;5064082;28;20053;-65
2022/04/16 08:35:19;;;;;;;14.38;9.80;;;18.50;53.20;;;;;;5074431;28;20126;-65
2022/04/16 08:37:47;;;;;;;12.45;9.15;;;18.70;52.90;;;;;;5061827;28;20485;-65
2022/04/16 08:40:14;;;;;;;13.40;9.32;;;18.90;52.60;;;;;;5055926;28;20087;-65
2022/04/16 08:42:41;;;;;;;14.27;9.75;;;19.00;52.10;;;;;;5055885;28;20044;-65
2022/04/16 08:45:08;;;;;;;14.05;9.55;;;19.00;51.80;;;;;;5055915;28;20319;-65
2022/04/16 08:47:35;;;;;;;13.63;9.52;;;19.10;51.70;;;;;;5055089;28;20577;-65
2022/04/16 08:50:02;;;;;;;13.73;9.73;;;19.10;51.50;;;;;;5055836;28;20374;-65
2022/04/16 08:52:30;;;;;;;14.13;8.65;;;19.10;51.40;;;;;;5055456;28;20040;-64
2022/04/16 08:54:57;;;;;;;13.90;9.32;;;19.10;51.20;;;;;;5054358;28;20458;-65
2022/04/16 08:57:23;;;;;;;14.20;10.05;;;19.20;51.20;;;;;;5053162;28;20033;-65
2022/04/16 08:59:52;;;;;;;13.68;9.38;;;19.10;51.10;;;;;;5054191;28;20041;-65
2022/04/16 09:02:22;;;;;;;13.82;8.95;;;19.10;50.90;;;;;;5055667;28;20076;-65
2022/04/16 09:04:49;;;;;;;12.48;8.90;;;19.20;50.70;;;;;;5056042;28;20029;-65
2022/04/16 09:07:15;;;;;;;13.02;9.48;;;19.30;50.50;;;;;;5060781;28;20090;-65
2022/04/16 09:09:42;;;;;;;13.43;8.73;;;19.40;50.20;;;;;;5034517;28;20052;-65
2022/04/16 09:12:17;;;;;;;15.05;10.32;;;19.30;50.20;;;;;;5042645;28;20099;-65
2022/04/16 09:14:45;;;;;;;13.98;9.45;;;18.90;50.30;;;;;;5063583;28;20112;-65
2022/04/16 09:17:18;;;;;;;13.80;9.35;;;18.90;51.00;;;;;;5065359;28;20033;-65
2022/04/16 09:19:53;;;;;;;12.55;9.00;;;19.00;50.80;;;;;;5075677;28;20040;-65
2022/04/16 09:22:33;;;;;;;12.25;8.10;;;19.20;50.50;;;;;;5074924;28;20373;-66
2022/04/16 09:24:59;;;;;;;14.30;8.98;;;19.40;50.00;;;;;;5075092;28;20036;-65
2022/04/16 09:27:25;;;;;;;13.68;8.80;;;19.40;49.80;;;;;;5058168;28;20024;-65
2022/04/16 09:29:53;;;;;;;12.15;8.63;;;19.50;49.60;;;;;;5054232;28;20116;-65
2022/04/16 09:32:25;;;;;;;13.95;8.90;;;19.70;49.30;;;;;;5055151;28;20052;-66
2022/04/16 09:34:53;;;;;;;12.80;8.35;;;19.60;48.80;;;;;;5055312;28;20378;-66
2022/04/16 09:37:21;;;;;;;13.32;8.35;;;19.50;48.80;;;;;;5055049;28;20033;-66
2022/04/16 09:39:47;;;;;;;12.55;8.05;;;19.50;48.80;;;;;;5055077;28;20033;-66
2022/04/16 09:42:24;;;;;;;11.32;7.82;;;19.60;48.60;;;;;;5055290;28;20044;-66
2022/04/16 09:44:49;;;;;;;11.85;7.75;;;19.80;48.00;;;;;;5055098;28;20071;-66
2022/04/16 09:47:19;;;;;;;11.20;8.13;;;19.80;48.40;;;;;;5054987;28;20049;-65
2022/04/16 09:49:44;;;;;;;13.98;8.65;;;19.70;48.40;;;;;;5054479;28;20064;-66
2022/04/16 09:52:12;;;;;;;10.27;7.25;;;19.50;48.60;;;;;;5054757;28;20061;-66
2022/04/16 09:54:38;;;;;;;12.27;7.72;;;19.50;48.40;;;;;;5053998;28;20051;-66
2022/04/16 09:57:05;;;;;;;12.20;7.75;;;19.50;48.40;;;;;;5054750;28;20040;-66
2022/04/16 09:59:35;;;;;;;13.43;8.15;;;19.60;48.20;;;;;;5069695;28;20094;-66
2022/04/16 10:02:02;;;;;;;13.02;7.45;;;19.50;48.00;;;;;;5051857;28;20347;-66
2022/04/16 10:04:29;;;;;;;12.50;7.88;;;19.60;48.20;;;;;;5052694;28;20044;-66
2022/04/16 10:06:55;;;;;;;10.77;7.18;;;19.50;48.10;;;;;;5044012;28;20025;-66
2022/04/16 10:09:22;;;;;;;10.85;7.07;;;19.50;48.10;;;;;;5033694;28;20036;-66
2022/04/16 10:14:49;;;;;;;12.20;6.88;;;20.00;47.60;;;;;;5046696;28;20060;-67
2022/04/16 10:17:15;;;;;;;10.18;6.65;;;19.80;47.30;;;;;;5042726;28;20048;-66
2022/04/16 10:19:45;;;;;;;11.38;6.93;;;19.70;47.70;;;;;;5036632;28;20358;-65
2022/04/16 10:22:24;;;;;;;9.10;6.23;;;19.50;47.70;;;;;;5046222;28;20033;-66
2022/04/16 10:24:57;;;;;;;10.27;6.53;;;19.50;47.70;;;;;;5035888;28;20033;-67
2022/04/16 10:27:29;;;;;;;10.75;5.90;;;19.70;47.40;;;;;;5066812;28;20108;-67
2022/04/16 10:30:02;;;;;;;8.70;5.40;;;19.70;47.00;;;;;;5055576;28;20350;-67
2022/04/16 10:32:42;;;;;;;11.57;6.38;;;19.50;47.10;;;;;;5035551;28;20061;-67
2022/04/16 10:35:18;;;;;;;10.75;6.40;;;19.20;47.20;;;;;;5035426;28;20108;-67
2022/04/16 10:37:48;;;;;;;10.75;5.32;;;19.10;47.40;;;;;;5035300;28;20038;-67
2022/04/16 10:40:25;;;;;;;10.50;5.57;;;19.10;47.50;;;;;;5036421;28;20041;-66
2022/04/16 10:43:01;;;;;;;9.77;5.10;;;19.30;47.10;;;;;;5068147;28;20025;-66
2022/04/16 10:45:27;;;;;;;10.35;5.07;;;19.50;46.60;;;;;;5042656;28;20064;-66
2022/04/16 10:47:54;;;;;;;9.55;5.15;;;19.70;46.00;;;;;;5036731;28;20340;-66
2022/04/16 10:50:21;;;;;;;10.02;4.80;;;19.80;45.60;;;;;;5055923;28;20029;-66
2022/04/16 10:53:07;;;;;;;9.63;4.78;;;19.80;45.30;;;;;;5064202;28;20037;-66
2022/04/16 10:55:36;;;;;;;6.30;3.40;;;19.90;44.50;;;;;;5054404;28;20131;-66
2022/04/16 10:58:06;;;;;;;7.63;3.88;;;20.00;44.40;;;;;;5054211;28;20075;-66
2022/04/16 11:00:49;;;;;;;9.40;3.97;;;20.20;43.80;;;;;;5056771;28;20028;-66
2022/04/16 11:03:27;;;;;;;8.15;4.53;;;20.10;43.50;;;;;;5061631;28;20108;-66
2022/04/16 11:06:05;;;;;;;9.00;4.35;;;19.90;43.90;;;;;;5054699;28;20100;-66
2022/04/16 11:08:35;;;;;;;7.03;3.65;;;19.80;43.70;;;;;;5052857;28;20064;-66
2022/04/16 11:11:04;;;;;;;6.80;3.63;;;19.90;43.90;;;;;;5060358;28;20353;-66
2022/04/16 11:13:31;;;;;;;8.40;3.75;;;20.00;43.50;;;;;;5053765;28;20095;-66
2022/04/16 11:16:00;;;;;;;7.28;3.60;;;19.90;43.20;;;;;;5053051;28;20021;-66
2022/04/16 11:18:35;;;;;;;8.63;3.60;;;19.70;43.40;;;;;;5054437;28;20067;-66
2022/04/16 11:21:07;;;;;;;7.13;3.80;;;19.60;43.50;;;;;;5053953;28;20421;-66
2022/04/16 11:23:39;;;;;;;7.35;3.75;;;19.70;43.10;;;;;;5053271;28;20457;-66
2022/04/16 11:34:24;;;;;;;6.57;3.28;;;20.00;42.80;;;;;;5043847;28;20041;-66
2022/04/16 11:36:50;;;;;;;7.88;3.40;;;20.20;42.70;;;;;;5059817;28;20020;-66
2022/04/16 11:39:20;;;;;;;6.55;3.60;;;20.20;42.50;;;;;;5058158;28;20036;-66
2022/04/16 11:41:47;;;;;;;7.50;3.45;;;20.20;42.30;;;;;;5058435;28;20353;-67
2022/04/16 11:44:13;;;;;;;6.95;3.55;;;20.20;42.40;;;;;;5058235;28;20037;-66
2022/04/16 11:46:41;;;;;;;7.10;3.67;;;20.20;42.30;;;;;;5058703;28;20655;-68
2022/04/16 11:49:07;;;;;;;6.88;3.63;;;20.30;42.10;;;;;;5058651;28;20070;-66
2022/04/16 11:51:36;;;;;;;7.20;3.50;;;20.20;41.80;;;;;;5056444;28;20021;-66
2022/04/16 11:54:02;;;;;;;6.70;3.60;;;20.20;41.70;;;;;;5065807;28;20041;-66
2022/04/16 11:56:28;;;;;;;6.07;3.20;;;20.10;41.70;;;;;;5073169;28;20482;-65
2022/04/16 11:58:53;;;;;;;7.10;3.90;;;20.00;41.80;;;;;;5058237;28;20394;-66
2022/04/16 12:01:23;;;;;;;7.15;3.38;;;20.00;41.70;;;;;;5065004;28;20029;-65
2022/04/16 12:03:53;;;;;;;7.32;3.38;;;20.00;41.50;;;;;;5055339;28;20037;-65
2022/04/16 12:06:19;;;;;;;8.90;3.97;;;20.00;41.50;;;;;;5059777;28;20140;-65
2022/04/16 12:08:48;;;;;;;5.88;3.20;;;19.90;41.50;;;;;;5061340;28;20048;-65
2022/04/16 12:11:17;;;;;;;6.97;3.10;;;19.90;41.50;;;;;;5059979;28;20021;-65
2022/04/16 12:13:43;;;;;;;5.70;2.80;;;19.80;40.90;;;;;;5058658;28;20036;-65
2022/04/16 12:16:11;;;;;;;7.70;3.38;;;19.80;40.80;;;;;;5060576;28;20029;-66
2022/04/16 12:18:46;;;;;;;6.82;3.50;;;19.80;40.80;;;;;;5071913;28;20025;-66
2022/04/16 12:21:14;;;;;;;6.78;3.42;;;19.70;40.70;;;;;;5061745;28;20433;-65
2022/04/16 12:23:41;;;;;;;7.50;2.95;;;19.60;40.80;;;;;;5069694;28;20108;-64
2022/04/16 12:26:17;;;;;;;6.60;3.20;;;19.40;40.70;;;;;;5058824;28;20129;-65
2022/04/16 12:28:53;;;;;;;7.13;3.38;;;19.40;40.90;;;;;;5058465;28;20029;-65
2022/04/16 12:31:26;;;;;;;7.25;3.80;;;19.40;40.90;;;;;;5068187;28;20457;-64
2022/04/16 12:33:51;;;;;;;7.75;3.63;;;19.40;40.50;;;;;;5071978;28;20457;-65
2022/04/16 12:36:17;;;;;;;7.07;3.55;;;19.30;40.60;;;;;;5076450;28;20027;-64
2022/04/16 12:38:42;;;;;;;7.70;4.13;;;19.20;40.30;;;;;;5060973;28;20033;-64
2022/04/16 12:41:10;;;;;;;8.15;4.25;;;19.10;40.30;;;;;;5057221;28;20507;-65
2022/04/16 12:43:36;;;;;;;6.72;3.60;;;19.00;40.20;;;;;;5057225;28;20032;-65
2022/04/16 12:46:02;;;;;;;7.80;3.50;;;19.00;40.00;;;;;;5057586;28;20043;-65
2022/04/16 12:48:27;;;;;;;7.18;3.17;;;18.90;39.30;;;;;;5058456;28;20438;-65
2022/04/16 12:50:53;;;;;;;8.60;3.40;;;18.80;39.10;;;;;;5060954;28;20071;-65
2022/04/16 12:53:19;;;;;;;7.07;2.85;;;18.70;39.00;;;;;;5058025;28;20078;-64
2022/04/16 12:55:44;;;;;;;7.90;3.03;;;18.70;38.70;;;;;;5057816;28;20094;-65
2022/04/16 12:58:10;;;;;;;6.18;3.08;;;18.60;38.40;;;;;;5058688;28;20039;-65
2022/04/16 13:00:35;;;;;;;6.15;2.80;;;18.50;38.20;;;;;;5056904;28;20051;-64